Time;durP1;ratioP1;P1;durP2;ratioP2;P2;SDS_P1;SDS_P2;PMS_P1;PMS_P2;Temp;Humidity;BMP_temperature;BMP_pressure;BME280_temperature;BME280_humidity;BME280_pressure;Samples;Min_cycle;Max_cycle;Signal;HPM_P1;HPM_P2
2023/12/03 00:00:43;;;;;;;31.90;17.50;;;;;;;0.95;100.00;101737.31;5059106;28;20020;-70
2023/12/03 00:03:09;;;;;;;33.63;18.25;;;;;;;0.98;100.00;101736.38;5063457;28;20024;-72
2023/12/03 00:05:36;;;;;;;36.72;17.45;;;;;;;1.00;100.00;101739.88;5057355;28;20032;-70
2023/12/03 00:08:02;;;;;;;32.95;18.05;;;;;;;1.02;100.00;101730.97;5054098;28;20022;-69
2023/12/03 00:10:27;;;;;;;30.98;17.02;;;;;;;1.04;100.00;101728.34;5060607;28;20013;-71
2023/12/03 00:12:53;;;;;;;33.50;18.80;;;;;;;1.07;100.00;101728.28;5064343;28;20024;-70
2023/12/03 00:15:18;;;;;;;33.83;17.10;;;;;;;1.07;100.00;101719.44;5055901;28;20064;-71
2023/12/03 00:17:43;;;;;;;34.70;17.00;;;;;;;1.09;100.00;101736.19;5056097;28;20445;-70
2023/12/03 00:20:12;;;;;;;36.17;17.45;;;;;;;1.09;100.00;101731.75;5054712;28;20032;-71
2023/12/03 00:22:37;;;;;;;29.75;14.80;;;;;;;1.11;100.00;101731.72;5051864;28;20032;-70
2023/12/03 00:25:03;;;;;;;33.35;16.83;;;;;;;1.12;100.00;101731.69;5053265;28;20087;-71
2023/12/03 00:27:28;;;;;;;32.42;16.50;;;;;;;1.14;100.00;101740.50;5059408;28;20127;-71
2023/12/03 00:29:53;;;;;;;32.50;16.58;;;;;;;1.16;100.00;101740.47;5058970;28;20135;-70
2023/12/03 00:32:18;;;;;;;32.42;16.15;;;;;;;1.16;100.00;101740.47;5059579;28;20112;-71
2023/12/03 00:34:44;;;;;;;32.42;16.75;;;;;;;1.18;100.00;101738.63;5049951;28;20086;-72
2023/12/03 00:37:12;;;;;;;30.13;15.88;;;;;;;1.19;100.00;101745.69;5048993;28;20036;-70
2023/12/03 00:39:37;;;;;;;32.05;16.83;;;;;;;1.23;100.00;101742.09;5058663;28;20024;-71
2023/12/03 00:42:03;;;;;;;31.23;15.18;;;;;;;1.24;100.00;101741.16;5054619;28;20037;-72
2023/12/03 00:44:28;;;;;;;36.63;17.80;;;;;;;1.25;100.00;101742.06;5053352;28;20037;-71
2023/12/03 00:46:53;;;;;;;32.78;15.98;;;;;;;1.26;100.00;101749.97;5060757;28;20083;-70
2023/12/03 00:49:19;;;;;;;29.45;16.45;;;;;;;1.26;100.00;101742.03;5055861;28;20084;-70
2023/12/03 00:51:44;;;;;;;31.45;16.00;;;;;;;1.28;100.00;101745.50;5058728;28;20052;-70
2023/12/03 00:54:09;;;;;;;30.35;16.98;;;;;;;1.28;100.00;101750.78;5058617;28;20036;-71
2023/12/03 00:56:34;;;;;;;30.92;15.95;;;;;;;1.25;100.00;101745.56;5059615;28;20031;-70
2023/12/03 00:59:00;;;;;;;32.42;15.05;;;;;;;1.26;100.00;101752.63;5047116;28;20028;-70
2023/12/03 01:01:25;;;;;;;32.05;16.92;;;;;;;1.26;100.00;101747.31;5055494;28;20173;-71
2023/12/03 01:03:50;;;;;;;29.30;16.20;;;;;;;1.25;100.00;101753.50;5048117;28;20025;-72
2023/12/03 01:06:16;;;;;;;31.92;17.52;;;;;;;1.26;100.00;101747.31;5053659;28;20045;-72
2023/12/03 01:08:41;;;;;;;30.90;18.65;;;;;;;1.26;100.00;101749.06;5047994;28;20116;-72
2023/12/03 01:11:07;;;;;;;33.17;18.60;;;;;;;1.28;100.00;101761.38;5055327;28;20104;-72
2023/12/03 01:13:32;;;;;;;32.28;18.45;;;;;;;1.27;100.00;101754.34;5052577;28;20057;-72
2023/12/03 01:15:59;;;;;;;35.40;18.95;;;;;;;1.28;100.00;101761.38;5051517;28;20035;-72
2023/12/03 01:18:24;;;;;;;33.10;16.85;;;;;;;1.29;100.00;101752.53;5049666;28;20036;-72
2023/12/03 01:20:50;;;;;;;33.78;18.35;;;;;;;1.28;100.00;101763.16;5060372;28;20017;-72
2023/12/03 01:23:15;;;;;;;33.50;17.55;;;;;;;1.25;100.00;101761.44;5048644;28;20651;-72
2023/12/03 01:25:40;;;;;;;34.28;18.48;;;;;;;1.26;100.00;101768.50;5052589;28;20103;-72
2023/12/03 01:28:06;;;;;;;33.80;18.15;;;;;;;1.27;100.00;101764.06;5059329;28;20360;-72
2023/12/03 01:30:32;;;;;;;33.80;18.23;;;;;;;1.28;100.00;101763.16;5055305;28;20131;-72
2023/12/03 01:32:57;;;;;;;32.90;17.77;;;;;;;1.27;100.00;101772.88;5054775;28;20570;-72
2023/12/03 01:35:22;;;;;;;32.33;18.20;;;;;;;1.29;100.00;101765.78;5048279;28;20028;-72
2023/12/03 01:37:48;;;;;;;34.53;17.88;;;;;;;1.26;100.00;101779.09;5042898;28;20496;-72
2023/12/03 01:40:14;;;;;;;33.67;18.02;;;;;;;1.26;100.00;101779.09;5037930;28;20025;-72
2023/12/03 01:42:39;;;;;;;34.47;18.52;;;;;;;1.24;100.00;101777.38;5049587;28;20030;-72
2023/12/03 01:45:05;;;;;;;33.03;19.55;;;;;;;1.19;100.00;101778.31;5056202;28;20074;-72
2023/12/03 01:47:30;;;;;;;33.42;19.00;;;;;;;1.17;100.00;101777.50;5055378;28;20059;-72
2023/12/03 01:50:04;;;;;;;33.28;18.20;;;;;;;1.17;100.00;101779.25;5050248;28;20370;-72
2023/12/03 01:52:29;;;;;;;36.42;18.25;;;;;;;1.15;100.00;101771.34;5053912;28;20025;-72
2023/12/03 01:54:55;;;;;;;35.08;19.80;;;;;;;1.15;100.00;101775.78;5056128;28;20020;-72
2023/12/03 01:57:20;;;;;;;36.75;19.98;;;;;;;1.15;100.00;101773.97;5052888;28;20055;-72
2023/12/03 01:59:46;;;;;;;39.42;22.33;;;;;;;1.16;100.00;101782.81;5050168;28;20051;-72
2023/12/03 02:02:11;;;;;;;35.17;21.45;;;;;;;1.13;100.00;101778.44;5059759;28;20078;-70
2023/12/03 02:04:36;;;;;;;40.38;20.38;;;;;;;1.11;100.00;101774.06;5064135;28;20028;-71
2023/12/03 02:07:02;;;;;;;35.80;22.63;;;;;;;1.11;100.00;101782.88;5062219;28;20025;-70
2023/12/03 02:09:27;;;;;;;37.63;21.60;;;;;;;1.11;100.00;101779.38;5059505;28;20036;-70
2023/12/03 02:11:53;;;;;;;37.90;20.50;;;;;;;1.11;100.00;101788.19;5056303;28;20020;-71
2023/12/03 02:14:18;;;;;;;38.38;23.40;;;;;;;1.11;100.00;101785.53;5055760;28;20368;-70
2023/12/03 02:16:47;;;;;;;37.22;23.15;;;;;;;1.09;100.00;101784.69;5064141;28;20028;-72
2023/12/03 02:19:13;;;;;;;40.65;23.85;;;;;;;1.12;100.00;101786.44;5043426;28;20036;-72
2023/12/03 02:21:38;;;;;;;40.55;21.75;;;;;;;1.12;100.00;101795.22;5047906;28;20043;-72
2023/12/03 02:24:04;;;;;;;38.70;21.35;;;;;;;1.14;100.00;101789.91;5042771;28;20017;-72
2023/12/03 02:26:29;;;;;;;38.72;22.60;;;;;;;1.15;100.00;101795.16;5051904;28;20504;-70
2023/12/03 02:28:55;;;;;;;39.55;23.50;;;;;;;1.17;100.00;101784.53;5050661;28;20131;-70
2023/12/03 02:31:20;;;;;;;40.75;21.88;;;;;;;1.19;100.00;101788.06;5050581;28;20524;-70
2023/12/03 02:34:05;;;;;;;39.88;21.73;;;;;;;1.20;100.00;101790.66;5060316;28;20245;-70
2023/12/03 02:36:30;;;;;;;32.70;18.67;;;;;;;1.24;100.00;101791.47;5056710;28;20032;-71
2023/12/03 02:38:55;;;;;;;35.53;20.02;;;;;;;1.24;100.00;101790.59;5053512;28;20021;-71
2023/12/03 02:41:21;;;;;;;33.90;19.35;;;;;;;1.24;100.00;101788.81;5042970;28;20530;-70
2023/12/03 02:43:46;;;;;;;34.60;19.13;;;;;;;1.24;100.00;101788.81;5051246;28;20314;-71
2023/12/03 02:46:11;;;;;;;33.10;18.33;;;;;;;1.25;100.00;101798.53;5062310;28;20028;-70
2023/12/03 02:48:36;;;;;;;36.58;18.90;;;;;;;1.27;100.00;101794.06;5050559;28;20548;-70
2023/12/03 02:51:02;;;;;;;34.47;19.30;;;;;;;1.28;100.00;101785.22;5062289;28;20092;-71
2023/12/03 02:53:27;;;;;;;31.60;18.45;;;;;;;1.30;100.00;101795.78;5047119;28;20106;-71
2023/12/03 02:55:52;;;;;;;34.83;18.27;;;;;;;1.27;100.00;101791.41;5060383;28;20186;-71
2023/12/03 02:58:18;;;;;;;36.83;19.08;;;;;;;1.26;100.00;101794.09;5051060;28;20029;-70
2023/12/03 03:00:43;;;;;;;33.22;16.77;;;;;;;1.24;100.00;101799.41;5052789;28;20576;-71
2023/12/03 03:03:08;;;;;;;35.65;18.85;;;;;;;1.22;100.00;101793.28;5056425;28;20086;-71
2023/12/03 03:05:33;;;;;;;32.05;18.15;;;;;;;1.19;100.00;101796.00;5046177;28;20032;-70
2023/12/03 03:07:59;;;;;;;33.22;18.83;;;;;;;1.15;100.00;101786.38;5049140;28;20087;-72
2023/12/03 03:10:24;;;;;;;35.35;18.35;;;;;;;1.12;100.00;101781.13;5047789;28;20044;-72
2023/12/03 03:12:49;;;;;;;32.92;17.65;;;;;;;1.11;100.00;101784.66;5048728;28;20036;-71
2023/12/03 03:15:14;;;;;;;41.83;19.83;;;;;;;1.07;100.00;101791.81;5047410;28;20029;-72
2023/12/03 03:17:40;;;;;;;35.22;17.92;;;;;;;1.02;100.00;101791.00;5049486;28;20086;-72
2023/12/03 03:20:06;;;;;;;37.15;19.77;;;;;;;0.95;100.00;101790.25;5040189;28;20415;-72
2023/12/03 03:22:32;;;;;;;37.13;18.50;;;;;;;0.94;100.00;101787.63;5052225;28;20090;-72
2023/12/03 03:24:59;;;;;;;33.90;17.05;;;;;;;0.89;100.00;101792.13;5042361;28;20473;-72
2023/12/03 03:27:24;;;;;;;34.20;17.90;;;;;;;0.86;100.00;101795.69;5053875;28;21106;-73
2023/12/03 03:29:49;;;;;;;34.92;18.35;;;;;;;0.85;100.00;101793.97;5053280;28;20123;-73
2023/12/03 03:32:15;;;;;;;35.10;19.25;;;;;;;0.82;100.00;101788.72;5054449;28;20380;-73
2023/12/03 03:34:40;;;;;;;35.13;17.70;;;;;;;0.80;100.00;101786.09;5053584;28;20108;-73
2023/12/03 03:37:05;;;;;;;33.60;18.42;;;;;;;0.79;100.00;101789.66;5053262;28;20047;-72
2023/12/03 03:39:33;;;;;;;35.78;18.38;;;;;;;0.79;100.00;101788.75;5053854;28;20082;-73
2023/12/03 03:41:59;;;;;;;36.58;20.67;;;;;;;0.77;100.00;101793.22;5054123;28;20052;-73
2023/12/03 03:44:24;;;;;;;33.90;18.08;;;;;;;0.74;100.00;101802.06;5048488;28;20336;-73
2023/12/03 03:46:49;;;;;;;34.35;19.50;;;;;;;0.73;100.00;101800.31;5049745;28;20033;-73
2023/12/03 03:49:15;;;;;;;30.70;16.48;;;;;;;0.71;100.00;101785.41;5053407;28;20131;-73
2023/12/03 03:51:40;;;;;;;39.30;17.80;;;;;;;0.66;100.00;101796.94;5051206;28;20040;-73
2023/12/03 03:54:06;;;;;;;37.35;19.50;;;;;;;0.63;100.00;101794.34;5052058;28;20105;-73
2023/12/03 03:56:31;;;;;;;33.38;16.85;;;;;;;0.59;100.00;101803.22;5049072;28;20032;-73
2023/12/03 03:58:56;;;;;;;35.75;18.90;;;;;;;0.57;100.00;101805.03;5048549;28;20402;-73
2023/12/03 04:01:21;;;;;;;38.40;18.52;;;;;;;0.52;100.00;101807.72;5048915;28;20081;-73
2023/12/03 04:03:47;;;;;;;36.67;17.98;;;;;;;0.49;100.00;101815.72;5053934;28;20115;-73
2023/12/03 04:06:12;;;;;;;33.70;17.17;;;;;;;0.47;100.00;101811.31;5054732;28;20388;-73
2023/12/03 04:08:38;;;;;;;34.30;18.50;;;;;;;0.45;100.00;101810.50;5049880;28;20024;-73
2023/12/03 04:11:04;;;;;;;35.15;18.45;;;;;;;0.40;100.00;101807.06;5050130;28;20029;-73
2023/12/03 04:13:30;;;;;;;34.67;17.23;;;;;;;0.37;100.00;101810.63;5049679;28;20446;-73
2023/12/03 04:15:56;;;;;;;32.78;18.17;;;;;;;0.35;100.00;101815.03;5046427;28;20033;-73
2023/12/03 04:18:22;;;;;;;33.17;18.20;;;;;;;0.33;100.00;101814.19;5048921;28;20517;-72
2023/12/03 04:20:47;;;;;;;34.95;17.10;;;;;;;0.30;100.00;101817.75;5052948;28;20029;-73
2023/12/03 04:23:13;;;;;;;35.15;17.02;;;;;;;0.27;100.00;101815.16;5052891;28;20052;-73
2023/12/03 04:25:39;;;;;;;37.97;17.20;;;;;;;0.25;100.00;101809.03;5053420;28;20024;-73
2023/12/03 04:28:04;;;;;;;35.88;17.85;;;;;;;0.24;100.00;101819.63;5055157;28;20032;-73
2023/12/03 04:30:29;;;;;;;35.55;18.13;;;;;;;0.20;100.00;101813.50;5055633;28;20042;-73
2023/12/03 04:32:55;;;;;;;38.80;17.55;;;;;;;0.19;100.00;101816.16;5050860;28;20033;-73
2023/12/03 04:35:20;;;;;;;33.60;18.42;;;;;;;0.16;100.00;101827.66;5050590;28;20410;-73
2023/12/03 04:37:46;;;;;;;34.80;17.42;;;;;;;0.12;100.00;101823.34;5056300;28;20032;-73
2023/12/03 04:40:11;;;;;;;33.42;18.60;;;;;;;0.09;100.00;101818.06;5058859;28;20472;-72
2023/12/03 04:42:36;;;;;;;34.20;16.67;;;;;;;0.05;100.00;101822.53;5053257;28;20025;-72
2023/12/03 04:45:02;;;;;;;34.28;18.52;;;;;;;0.02;100.00;101830.50;5057624;28;20112;-73
2023/12/03 04:47:28;;;;;;;42.60;16.60;;;;;;;0.00;100.00;101827.03;5048503;28;20044;-74
2023/12/03 04:49:54;;;;;;;32.20;17.85;;;;;;;-0.03;100.00;101825.28;5055461;28;20204;-72
2023/12/03 04:52:19;;;;;;;31.60;17.58;;;;;;;-0.07;100.00;101828.84;5053631;28;20028;-73
2023/12/03 04:54:45;;;;;;;34.50;18.52;;;;;;;-0.07;100.00;101833.28;5054161;28;20369;-72
2023/12/03 04:57:10;;;;;;;37.30;17.98;;;;;;;-0.11;100.00;101826.28;5047565;28;20043;-73
2023/12/03 04:59:35;;;;;;;38.70;16.90;;;;;;;-0.13;100.00;101823.66;5051413;28;20029;-72
2023/12/03 05:02:00;;;;;;;37.20;16.80;;;;;;;-0.12;100.00;101829.81;5043112;28;20544;-73
2023/12/03 05:04:26;;;;;;;33.78;17.25;;;;;;;-0.15;100.00;101828.06;5051654;28;20569;-72
2023/12/03 05:06:52;;;;;;;36.25;18.95;;;;;;;-0.18;100.00;101838.69;5046872;28;20063;-73
2023/12/03 05:09:17;;;;;;;41.45;21.25;;;;;;;-0.17;100.00;101829.88;5052024;28;20048;-72
2023/12/03 05:11:44;;;;;;;39.65;19.15;;;;;;;-0.20;100.00;101832.56;5052259;28;20032;-73
2023/12/03 05:14:10;;;;;;;38.58;20.15;;;;;;;-0.23;100.00;101841.38;5048080;28;20021;-72
2023/12/03 05:16:36;;;;;;;38.50;18.95;;;;;;;-0.24;100.00;101841.41;5048014;28;20276;-73
2023/12/03 05:19:01;;;;;;;39.22;21.35;;;;;;;-0.27;100.00;101842.31;5053206;28;20544;-74
2023/12/03 05:21:27;;;;;;;37.08;20.90;;;;;;;-0.28;100.00;101834.41;5042570;28;20052;-73
2023/12/03 05:23:52;;;;;;;40.95;21.48;;;;;;;-0.27;100.00;101841.44;5052195;28;20032;-74
2023/12/03 05:26:17;;;;;;;41.10;21.58;;;;;;;-0.26;100.00;101843.22;5054391;28;20016;-73
2023/12/03 05:28:42;;;;;;;38.53;19.92;;;;;;;-0.27;100.00;101841.44;5047448;28;20097;-72
2023/12/03 05:31:08;;;;;;;47.58;22.63;;;;;;;-0.30;100.00;101838.84;5053512;28;20029;-73
2023/12/03 05:33:33;;;;;;;39.63;20.83;;;;;;;-0.33;100.00;101846.81;5055060;28;20029;-73
2023/12/03 05:35:59;;;;;;;41.42;20.33;;;;;;;-0.36;100.00;101843.31;5047533;28;20524;-73
2023/12/03 05:38:24;;;;;;;41.03;22.02;;;;;;;-0.40;100.00;101841.59;5051434;28;20037;-73
2023/12/03 05:40:49;;;;;;;39.58;20.45;;;;;;;-0.43;100.00;101844.25;5047603;28;20124;-73
2023/12/03 05:43:15;;;;;;;40.92;20.08;;;;;;;-0.45;100.00;101848.69;5051825;28;20058;-73
2023/12/03 05:45:40;;;;;;;39.75;18.52;;;;;;;-0.47;100.00;101842.56;5048554;28;20134;-72
2023/12/03 05:48:06;;;;;;;37.42;19.90;;;;;;;-0.47;100.00;101850.50;5049933;28;20121;-70
2023/12/03 05:50:32;;;;;;;38.90;19.30;;;;;;;-0.49;100.00;101848.75;5056810;28;20132;-69
2023/12/03 05:52:57;;;;;;;35.13;18.45;;;;;;;-0.50;100.00;101853.13;5049253;28;20021;-69
2023/12/03 05:55:23;;;;;;;48.80;18.27;;;;;;;-0.49;100.00;101849.63;5052170;28;20021;-70
2023/12/03 05:57:48;;;;;;;40.17;18.50;;;;;;;-0.52;100.00;101854.06;5058307;28;20057;-70
2023/12/03 06:00:14;;;;;;;40.55;19.42;;;;;;;-0.56;100.00;101856.75;5051405;28;20025;-71
2023/12/03 06:02:39;;;;;;;33.50;17.05;;;;;;;-0.56;100.00;101855.84;5051689;28;20207;-70
2023/12/03 06:05:05;;;;;;;37.30;18.10;;;;;;;-0.60;100.00;101856.78;5054835;28;20024;-70
2023/12/03 06:07:30;;;;;;;40.58;18.85;;;;;;;-0.61;100.00;101862.97;5055604;28;20025;-70
2023/12/03 06:09:55;;;;;;;36.05;19.45;;;;;;;-0.60;100.00;101864.69;5054938;28;20025;-70
2023/12/03 06:12:21;;;;;;;36.25;18.83;;;;;;;-0.61;100.00;101862.97;5052226;28;20492;-69
2023/12/03 06:14:46;;;;;;;38.75;18.40;;;;;;;-0.61;100.00;101862.97;5056908;28;20024;-70
2023/12/03 06:17:11;;;;;;;37.67;18.30;;;;;;;-0.64;100.00;101863.00;5049348;28;20564;-70
2023/12/03 06:19:37;;;;;;;37.58;19.95;;;;;;;-0.64;100.00;101863.88;5049573;28;20520;-70
2023/12/03 06:22:02;;;;;;;42.03;19.50;;;;;;;-0.67;100.00;101866.53;5044127;28;20115;-70
2023/12/03 06:24:27;;;;;;;37.97;19.13;;;;;;;-0.67;100.00;101870.94;5050243;28;20021;-69
2023/12/03 06:26:54;;;;;;;38.08;18.33;;;;;;;-0.69;100.00;101875.34;5057005;28;20039;-69
2023/12/03 06:29:19;;;;;;;38.40;18.30;;;;;;;-0.70;100.00;101874.50;5055977;28;20426;-69
2023/12/03 06:31:45;;;;;;;34.60;18.90;;;;;;;-0.68;100.00;101871.84;5051290;28;20079;-70
2023/12/03 06:34:12;;;;;;;36.67;19.10;;;;;;;-0.65;100.00;101858.59;5052848;28;20032;-70
2023/12/03 06:36:37;;;;;;;38.70;17.88;;;;;;;-0.64;100.00;101852.44;5051844;28;20041;-70
2023/12/03 06:39:02;;;;;;;39.05;15.90;;;;;;;-0.63;100.00;101864.72;5054176;28;20037;-70
2023/12/03 06:41:27;;;;;;;36.85;18.55;;;;;;;-0.67;100.00;101853.34;5052118;28;20082;-70
2023/12/03 06:43:53;;;;;;;37.92;16.45;;;;;;;-0.66;100.00;101855.09;5056058;28;20021;-70
2023/12/03 06:46:18;;;;;;;38.33;17.17;;;;;;;-0.67;100.00;101857.72;5054977;28;20098;-70
2023/12/03 06:48:43;;;;;;;34.20;17.88;;;;;;;-0.68;100.00;101850.72;5058418;28;20049;-70
2023/12/03 06:51:09;;;;;;;39.13;19.15;;;;;;;-0.68;100.00;101858.63;5051966;28;20041;-69
2023/12/03 06:53:35;;;;;;;34.13;16.58;;;;;;;-0.68;100.00;101864.78;5048056;28;20021;-69
2023/12/03 06:56:00;;;;;;;34.65;16.95;;;;;;;-0.67;100.00;101863.00;5057376;28;20161;-69
2023/12/03 06:58:25;;;;;;;37.30;18.33;;;;;;;-0.72;100.00;101852.50;5052893;28;20423;-72
2023/12/03 07:00:51;;;;;;;35.50;18.08;;;;;;;-0.74;100.00;101855.16;5054694;28;20024;-72
2023/12/03 07:03:17;;;;;;;32.75;16.95;;;;;;;-0.74;100.00;101852.50;5050479;28;20049;-72
2023/12/03 07:05:42;;;;;;;38.95;20.05;;;;;;;-0.74;100.00;101852.50;5045093;28;20469;-72
2023/12/03 07:08:07;;;;;;;36.28;16.10;;;;;;;-0.77;100.00;101852.56;5046129;28;20366;-73
2023/12/03 07:10:33;;;;;;;35.60;18.52;;;;;;;-0.75;100.00;101856.06;5049953;28;20107;-73
2023/12/03 07:12:58;;;;;;;34.72;15.73;;;;;;;-0.76;100.00;101853.41;5050761;28;20031;-73
2023/12/03 07:15:23;;;;;;;39.35;17.88;;;;;;;-0.78;100.00;101860.50;5045115;28;20047;-73
2023/12/03 07:17:49;;;;;;;36.22;16.70;;;;;;;-0.77;100.00;101867.53;5053063;28;20025;-73
2023/12/03 07:20:14;;;;;;;40.28;19.17;;;;;;;-0.77;100.00;101872.81;5049853;28;20071;-71
2023/12/03 07:22:42;;;;;;;41.67;18.08;;;;;;;-0.78;100.00;101873.69;5045552;28;20041;-73
2023/12/03 07:25:07;;;;;;;36.47;18.75;;;;;;;-0.78;100.00;101871.91;5046226;28;20022;-73
2023/12/03 07:27:42;;;;;;;35.03;16.45;;;;;;;-0.78;100.00;101871.03;5045213;28;20028;-73
2023/12/03 07:30:08;;;;;;;38.90;18.00;;;;;;;-0.81;100.00;101877.22;5047850;28;20326;-73
2023/12/03 07:32:33;;;;;;;33.47;17.77;;;;;;;-0.83;100.00;101883.44;5053274;28;20016;-73
2023/12/03 07:34:59;;;;;;;33.25;15.43;;;;;;;-0.83;100.00;101873.72;5047194;28;20132;-73
2023/12/03 07:37:24;;;;;;;39.17;18.95;;;;;;;-0.82;100.00;101874.59;5051250;28;20028;-73
2023/12/03 07:39:49;;;;;;;33.60;16.23;;;;;;;-0.84;100.00;101877.25;5052028;28;20066;-73
2023/12/03 07:42:15;;;;;;;36.58;17.73;;;;;;;-0.82;100.00;101886.06;5062405;28;20032;-72
2023/12/03 07:44:40;;;;;;;35.55;17.95;;;;;;;-0.78;100.00;101882.47;5060210;28;20054;-73
2023/12/03 07:47:05;;;;;;;33.80;16.02;;;;;;;-0.79;100.00;101883.38;5055779;28;20020;-73
2023/12/03 07:49:30;;;;;;;34.05;17.65;;;;;;;-0.80;100.00;101878.13;5054672;28;20041;-72
2023/12/03 07:51:56;;;;;;;37.58;17.15;;;;;;;-0.78;100.00;101884.25;5055438;28;20444;-73
2023/12/03 07:54:21;;;;;;;40.40;16.77;;;;;;;-0.78;100.00;101876.31;5043357;28;20035;-72
2023/12/03 07:56:46;;;;;;;35.20;18.05;;;;;;;-0.79;100.00;101875.47;5054892;28;20099;-73
2023/12/03 07:59:12;;;;;;;37.97;17.77;;;;;;;-0.77;100.00;101880.72;5044138;28;20045;-73
2023/12/03 08:01:37;;;;;;;37.47;19.50;;;;;;;-0.81;100.00;101885.13;5049867;28;20337;-74
2023/12/03 08:04:03;;;;;;;37.67;18.05;;;;;;;-0.83;100.00;101873.72;5050886;28;20025;-73
2023/12/03 08:06:29;;;;;;;35.38;17.92;;;;;;;-0.82;100.00;101885.16;5049915;28;20090;-73
2023/12/03 08:08:54;;;;;;;35.88;18.13;;;;;;;-0.84;100.00;101890.44;5053005;28;20435;-73
2023/12/03 08:11:20;;;;;;;35.90;16.42;;;;;;;-0.86;100.00;101893.97;5054870;28;20184;-73
2023/12/03 08:13:46;;;;;;;39.90;18.48;;;;;;;-0.82;100.00;101898.34;5047385;28;20477;-73
2023/12/03 08:16:12;;;;;;;35.25;15.90;;;;;;;-0.81;100.00;101898.34;5052332;28;20172;-74
2023/12/03 08:18:38;;;;;;;38.45;18.95;;;;;;;-0.80;100.00;101899.22;5044049;28;20476;-73
2023/12/03 08:21:03;;;;;;;33.85;19.35;;;;;;;-0.77;100.00;101905.34;5050167;28;20091;-73
2023/12/03 08:23:29;;;;;;;37.15;16.92;;;;;;;-0.74;100.00;101900.03;5040839;28;20025;-73
2023/12/03 08:25:54;;;;;;;33.35;16.65;;;;;;;-0.72;100.00;101905.28;5043288;28;20029;-73
2023/12/03 08:28:20;;;;;;;38.63;19.35;;;;;;;-0.70;100.00;101906.19;5040710;28;20122;-73
2023/12/03 08:30:45;;;;;;;35.90;18.25;;;;;;;-0.69;100.00;101901.75;5047786;28;20052;-73
2023/12/03 08:33:10;;;;;;;34.30;16.55;;;;;;;-0.63;100.00;101906.97;5041577;28;20374;-73
2023/12/03 08:35:35;;;;;;;35.78;19.23;;;;;;;-0.60;100.00;101902.56;5046076;28;20037;-72
2023/12/03 08:38:01;;;;;;;33.97;17.58;;;;;;;-0.59;100.00;101908.69;5050480;28;20166;-73
2023/12/03 08:40:26;;;;;;;38.08;18.92;;;;;;;-0.55;100.00;101921.00;5053639;28;20471;-73
2023/12/03 08:42:51;;;;;;;36.47;17.42;;;;;;;-0.52;100.00;101913.03;5044061;28;20032;-73
2023/12/03 08:45:17;;;;;;;34.20;17.60;;;;;;;-0.46;100.00;101920.03;5058660;28;20040;-73
2023/12/03 08:47:42;;;;;;;32.70;15.98;;;;;;;-0.43;100.00;101918.22;5046052;28;20412;-72
2023/12/03 08:50:08;;;;;;;32.08;15.27;;;;;;;-0.41;100.00;101919.09;5047888;28;20045;-73
2023/12/03 08:52:34;;;;;;;34.72;16.00;;;;;;;-0.36;100.00;101926.97;5050469;28;20057;-73
2023/12/03 08:55:00;;;;;;;33.22;16.00;;;;;;;-0.29;100.00;101927.75;5051364;28;20037;-73
2023/12/03 08:57:26;;;;;;;35.05;17.75;;;;;;;-0.26;100.00;101923.31;5051247;28;20504;-73
2023/12/03 08:59:53;;;;;;;33.95;14.40;;;;;;;-0.20;100.00;101927.66;5059707;28;20017;-73
2023/12/03 09:02:19;;;;;;;34.55;17.75;;;;;;;-0.17;100.00;101926.78;5056097;28;20043;-72
2023/12/03 09:04:44;;;;;;;34.83;16.48;;;;;;;-0.15;100.00;101923.19;5050693;28;20056;-73
2023/12/03 09:07:09;;;;;;;33.25;15.73;;;;;;;-0.14;100.00;101930.25;5043477;28;20057;-73
2023/12/03 09:09:35;;;;;;;34.40;17.08;;;;;;;-0.12;100.00;101933.72;5042818;28;20035;-73
2023/12/03 09:12:00;;;;;;;33.95;16.20;;;;;;;-0.13;100.00;101928.47;5056098;28;20505;-73
2023/12/03 09:14:27;;;;;;;34.97;16.67;;;;;;;-0.13;100.00;101934.63;5049295;28;20063;-73
2023/12/03 09:16:53;;;;;;;33.53;14.23;;;;;;;-0.16;100.00;101928.50;5050090;28;20087;-73
2023/12/03 09:19:18;;;;;;;33.75;15.85;;;;;;;-0.16;100.00;101934.69;5053832;28;20453;-72
2023/12/03 09:21:43;;;;;;;33.80;17.05;;;;;;;-0.15;100.00;101936.41;5055773;28;20463;-73
2023/12/03 09:24:09;;;;;;;33.55;16.13;;;;;;;-0.14;100.00;101934.66;5054410;28;20040;-73
2023/12/03 09:26:34;;;;;;;31.35;15.52;;;;;;;-0.14;100.00;101932.88;5054992;28;20049;-74
2023/12/03 09:29:00;;;;;;;33.15;15.45;;;;;;;-0.16;100.00;101939.06;5046576;28;20033;-74
2023/12/03 09:31:25;;;;;;;34.58;15.70;;;;;;;-0.15;100.00;101939.03;5051506;28;20028;-72
2023/12/03 09:33:50;;;;;;;35.08;16.58;;;;;;;-0.13;100.00;101928.47;5047002;28;20458;-73
2023/12/03 09:36:16;;;;;;;31.88;15.02;;;;;;;-0.11;100.00;101927.56;5049193;28;20036;-73
2023/12/03 09:38:42;;;;;;;33.15;14.88;;;;;;;-0.08;100.00;101921.38;5041874;28;20122;-73
2023/12/03 09:41:13;;;;;;;31.30;15.13;;;;;;;-0.08;100.00;101927.53;5045050;28;20025;-72
2023/12/03 09:43:41;;;;;;;34.60;16.98;;;;;;;-0.04;100.00;101926.59;5051405;28;20031;-73
2023/12/03 09:46:14;;;;;;;31.65;14.68;;;;;;;0.02;100.00;101925.66;5058528;28;20082;-73
2023/12/03 09:48:43;;;;;;;33.58;14.35;;;;;;;0.04;100.00;101925.63;5051242;28;20053;-74
2023/12/03 09:51:11;;;;;;;33.90;16.33;;;;;;;0.06;100.00;101919.44;5049006;28;20044;-72
2023/12/03 09:53:43;;;;;;;32.75;16.58;;;;;;;0.08;100.00;101928.22;5047128;28;20058;-73
2023/12/03 09:56:12;;;;;;;37.78;17.02;;;;;;;0.10;100.00;101925.56;5044637;28;20033;-73
2023/12/03 09:58:38;;;;;;;32.75;16.17;;;;;;;0.15;100.00;101929.03;5050644;28;20046;-73
2023/12/03 10:01:04;;;;;;;35.40;15.93;;;;;;;0.17;100.00;101914.88;5047530;28;20069;-73
2023/12/03 10:03:30;;;;;;;31.58;14.45;;;;;;;0.20;99.58;101915.75;5048350;28;20020;-73
2023/12/03 10:05:56;;;;;;;30.92;14.90;;;;;;;0.25;99.72;101914.78;5054314;28;20032;-73
2023/12/03 10:08:22;;;;;;;35.50;14.05;;;;;;;0.28;99.57;101912.09;5051573;28;20024;-73
2023/12/03 10:10:55;;;;;;;33.03;15.60;;;;;;;0.31;99.59;101903.25;5047878;28;20091;-73
2023/12/03 10:13:21;;;;;;;33.10;15.70;;;;;;;0.34;98.66;101917.31;5047131;28;20369;-73
2023/12/03 10:15:46;;;;;;;31.08;14.05;;;;;;;0.38;99.18;101904.03;5052744;28;20433;-73
2023/12/03 10:18:12;;;;;;;29.90;14.02;;;;;;;0.40;98.56;101902.25;5050618;28;20115;-73
2023/12/03 10:20:38;;;;;;;30.98;15.13;;;;;;;0.42;97.59;101900.47;5056264;28;20416;-73
2023/12/03 10:23:04;;;;;;;29.38;14.52;;;;;;;0.45;97.81;101893.34;5054555;28;20357;-72
2023/12/03 10:25:34;;;;;;;28.30;13.93;;;;;;;0.47;97.31;101883.63;5055313;28;20087;-74
2023/12/03 10:28:01;;;;;;;34.03;14.07;;;;;;;0.49;96.51;101888.91;5055027;28;20067;-72
2023/12/03 10:30:27;;;;;;;35.78;13.80;;;;;;;0.52;96.84;101892.34;5056884;28;20030;-72
2023/12/03 10:32:53;;;;;;;35.05;16.25;;;;;;;0.56;96.35;101893.22;5057256;28;20089;-71
2023/12/03 10:35:20;;;;;;;29.48;15.07;;;;;;;0.61;96.42;101887.84;5055862;28;20035;-72
2023/12/03 10:37:45;;;;;;;30.20;14.90;;;;;;;0.67;95.96;101879.81;5042066;28;20028;-72
2023/12/03 10:40:11;;;;;;;36.72;14.93;;;;;;;0.75;96.04;101884.97;5048477;28;20016;-72
2023/12/03 10:42:37;;;;;;;28.65;13.98;;;;;;;0.79;95.71;101878.72;5054592;28;20109;-72
2023/12/03 10:45:12;;;;;;;29.70;12.82;;;;;;;0.85;95.42;101873.38;5041433;28;20033;-72
2023/12/03 10:47:38;;;;;;;31.50;13.57;;;;;;;0.86;94.58;101873.34;5044090;28;20481;-72
2023/12/03 10:50:05;;;;;;;32.97;15.13;;;;;;;0.93;93.87;101871.44;5047424;28;20048;-72
2023/12/03 10:52:38;;;;;;;31.00;14.23;;;;;;;0.99;93.28;101870.47;5050832;28;20025;-72
2023/12/03 10:55:05;;;;;;;30.95;12.48;;;;;;;1.02;92.80;101865.13;5053608;28;20035;-72
2023/12/03 10:57:33;;;;;;;29.80;14.30;;;;;;;1.08;92.39;101867.66;5048365;28;20025;-72
2023/12/03 11:00:10;;;;;;;29.02;13.15;;;;;;;1.19;92.13;101865.72;5057281;28;20329;-72